Mount Pleasant, Tennessee
Current Conditions -  °F | °C
As of 12:15 PM on Friday 19 Dec 2014 (Local Time) from KSYI Reporting Station
Clear Clear  
Wind Chill: 35°   Ceiling: Unl
Heat Index: 39°   Visibility: 10mi
Dew Point: 28°   Wind: 6mph
Humidity: 65%   Direction: 40°NE
Pressure: 30.2"   Gusts: NA
Location:  35.53°N, 87.21°W
Report Text: KSYI 191815Z AUTO 04005KT 10SM CLR 04/M02 A3020 RMK
Loading
Personal Weather Stations






























Interactive Weather Map New forecast layout! Learn more

10-Day Weather Forecast

Advertisements
Track Severe Weather on mobile